KDTW/DTW METAR and TAF weather

Enter ICAO airport designator
Station Type Date Time Source
KDTW METAR 2018/04/19 12:53 UTC NOAA

KDTW 191253Z 34012KT 10SM FEW045 SCT170 04/M04 A3005 RMK AO2 SLP180 T00391044 $


Station Type Date Time Source
KDTW Decoded METAR 2018/04/19 12:53 UTC NOAA

DETROIT METROPOLITAN, MI, United States (KDTW) 42-14N 83-20W 195M
Apr 19, 2018 - 08:53 AM EDT / 2018.04.19 1253 UTC
Wind: from the NNW (340 degrees) at 14 MPH (12 KT):0
Visibility: 10 mile(s):0
Sky conditions: partly cloudy
Temperature: 39.0 F (3.9 C)
Dew Point: 24.1 F (-4.4 C)
Relative Humidity: 54%
Pressure (altimeter): 30.05 in. Hg (1017 hPa)
ob: KDTW 191253Z 34012KT 10SM FEW045 SCT170 04/M04 A3005 RMK AO2 SLP180 T00391044
cycle: 13

Station Type Date Time Source
KDTW TAF 2018/04/19 12:22 UTC NOAA

TAF KDTW 191120Z 1912/2018 32009KT P6SM BKN045
FM191400 33014G21KT P6SM SCT028 BKN040
FM191700 31013G20KT P6SM SCT035
FM200000 33008KT P6SM SKC
FM201200 31006KT P6SM SKC


Example: see airport list